sensor_id;sensor_type;location;lat;lon;timestamp;pressure;altitude;pressure_sealevel;temperature;humidity
19736;BME280;32064;49.310;8.646;2023-02-19T00:00:58;101123.75;;;13.37;70.87
19736;BME280;32064;49.310;8.646;2023-02-19T00:03:26;101120.16;;;13.38;71.16
19736;BME280;32064;49.310;8.646;2023-02-19T00:05:51;101119.09;;;13.40;71.09
19736;BME280;32064;49.310;8.646;2023-02-19T00:08:16;101112.97;;;13.40;71.46
19736;BME280;32064;49.310;8.646;2023-02-19T00:10:42;101111.06;;;13.42;70.66
19736;BME280;32064;49.310;8.646;2023-02-19T00:13:07;101113.91;;;13.39;70.83
19736;BME280;32064;49.310;8.646;2023-02-19T00:15:35;101109.38;;;13.41;71.23
19736;BME280;32064;49.310;8.646;2023-02-19T00:18:00;101096.50;;;13.36;71.04
19736;BME280;32064;49.310;8.646;2023-02-19T00:20:26;101075.22;;;13.38;71.02
19736;BME280;32064;49.310;8.646;2023-02-19T00:22:51;101105.13;;;13.38;71.15
19736;BME280;32064;49.310;8.646;2023-02-19T00:25:17;101102.63;;;13.37;71.91
19736;BME280;32064;49.310;8.646;2023-02-19T00:27:42;101069.19;;;13.36;72.84
19736;BME280;32064;49.310;8.646;2023-02-19T00:30:08;101073.66;;;13.35;72.59
19736;BME280;32064;49.310;8.646;2023-02-19T00:32:33;101102.84;;;13.34;72.67
19736;BME280;32064;49.310;8.646;2023-02-19T00:34:59;101094.03;;;13.33;72.32
19736;BME280;32064;49.310;8.646;2023-02-19T00:37:24;101085.28;;;13.33;72.16
19736;BME280;32064;49.310;8.646;2023-02-19T00:39:49;101093.41;;;13.30;72.49
19736;BME280;32064;49.310;8.646;2023-02-19T00:42:15;101090.91;;;13.28;73.36
19736;BME280;32064;49.310;8.646;2023-02-19T00:44:40;101089.19;;;13.27;73.86
19736;BME280;32064;49.310;8.646;2023-02-19T00:47:06;101093.72;;;13.25;73.63
19736;BME280;32064;49.310;8.646;2023-02-19T00:49:31;101101.88;;;13.22;73.91
19736;BME280;32064;49.310;8.646;2023-02-19T00:51:56;101108.31;;;13.18;73.10
19736;BME280;32064;49.310;8.646;2023-02-19T00:54:22;101100.69;;;13.13;73.33
19736;BME280;32064;49.310;8.646;2023-02-19T00:56:48;101088.97;;;13.17;73.96
19736;BME280;32064;49.310;8.646;2023-02-19T00:59:14;101090.78;;;13.17;72.81
19736;BME280;32064;49.310;8.646;2023-02-19T01:01:39;101089.81;;;13.18;73.36
19736;BME280;32064;49.310;8.646;2023-02-19T01:04:05;101068.28;;;13.11;74.01
19736;BME280;32064;49.310;8.646;2023-02-19T01:06:31;101083.28;;;13.11;73.76
19736;BME280;32064;49.310;8.646;2023-02-19T01:08:57;101079.47;;;13.15;74.00
19736;BME280;32064;49.310;8.646;2023-02-19T01:11:23;101100.59;;;13.15;73.50
19736;BME280;32064;49.310;8.646;2023-02-19T01:13:48;101097.00;;;13.16;73.82
19736;BME280;32064;49.310;8.646;2023-02-19T01:16:21;101091.22;;;13.11;74.48
19736;BME280;32064;49.310;8.646;2023-02-19T01:18:49;101096.50;;;13.11;73.89
19736;BME280;32064;49.310;8.646;2023-02-19T01:21:20;101090.34;;;13.10;73.25
19736;BME280;32064;49.310;8.646;2023-02-19T01:23:46;101098.25;;;13.10;74.48
19736;BME280;32064;49.310;8.646;2023-02-19T01:26:14;101102.50;;;13.13;74.14
19736;BME280;32064;49.310;8.646;2023-02-19T01:28:40;101096.50;;;13.11;73.76
19736;BME280;32064;49.310;8.646;2023-02-19T01:31:11;101099.13;;;13.11;74.08
19736;BME280;32064;49.310;8.646;2023-02-19T01:33:36;101118.47;;;13.11;73.48
19736;BME280;32064;49.310;8.646;2023-02-19T01:36:03;101101.78;;;13.11;74.35
19736;BME280;32064;49.310;8.646;2023-02-19T01:38:29;101107.16;;;13.09;74.13
19736;BME280;32064;49.310;8.646;2023-02-19T01:40:56;101093.84;;;13.11;74.45
19736;BME280;32064;49.310;8.646;2023-02-19T01:43:22;101099.44;;;13.06;73.96
19736;BME280;32064;49.310;8.646;2023-02-19T01:45:47;101083.38;;;13.09;73.35
19736;BME280;32064;49.310;8.646;2023-02-19T01:48:20;101062.34;;;13.08;74.31
19736;BME280;32064;49.310;8.646;2023-02-19T01:51:06;101072.19;;;13.06;75.30
19736;BME280;32064;49.310;8.646;2023-02-19T01:53:36;101066.06;;;13.05;75.21
19736;BME280;32064;49.310;8.646;2023-02-19T01:56:04;101068.81;;;13.03;75.53
19736;BME280;32064;49.310;8.646;2023-02-19T01:58:33;101078.63;;;13.01;76.22
19736;BME280;32064;49.310;8.646;2023-02-19T02:01:01;101083.19;;;12.99;75.48
19736;BME280;32064;49.310;8.646;2023-02-19T02:03:28;101063.41;;;12.92;76.39
19736;BME280;32064;49.310;8.646;2023-02-19T02:08:40;101074.41;;;12.86;75.84
19736;BME280;32064;49.310;8.646;2023-02-19T02:11:25;101073.13;;;12.92;75.37
19736;BME280;32064;49.310;8.646;2023-02-19T02:13:52;101064.38;;;12.91;75.53
19736;BME280;32064;49.310;8.646;2023-02-19T02:16:26;101061.41;;;12.96;75.57
19736;BME280;32064;49.310;8.646;2023-02-19T02:32:44;101049.16;;;12.82;76.67
19736;BME280;32064;49.310;8.646;2023-02-19T02:35:21;101063.31;;;12.81;76.67
19736;BME280;32064;49.310;8.646;2023-02-19T02:37:48;101057.06;;;12.82;76.83
19736;BME280;32064;49.310;8.646;2023-02-19T02:40:16;101050.50;;;12.88;77.15
19736;BME280;32064;49.310;8.646;2023-02-19T02:42:42;101038.72;;;12.80;76.74
19736;BME280;32064;49.310;8.646;2023-02-19T02:53:57;101039.22;;;12.73;76.90
19736;BME280;32064;49.310;8.646;2023-02-19T02:56:45;101028.03;;;12.69;76.94
19736;BME280;32064;49.310;8.646;2023-02-19T02:59:13;101032.25;;;12.72;76.95
19736;BME280;32064;49.310;8.646;2023-02-19T03:01:46;101026.38;;;12.68;78.67
19736;BME280;32064;49.310;8.646;2023-02-19T03:04:32;101021.91;;;12.69;77.72
19736;BME280;32064;49.310;8.646;2023-02-19T03:07:04;101030.56;;;12.71;78.40
19736;BME280;32064;49.310;8.646;2023-02-19T03:09:36;101036.06;;;12.68;77.16
19736;BME280;32064;49.310;8.646;2023-02-19T03:12:09;101038.59;;;12.69;77.37
19736;BME280;32064;49.310;8.646;2023-02-19T03:14:57;101036.16;;;12.66;77.54
19736;BME280;32064;49.310;8.646;2023-02-19T03:17:50;101035.22;;;12.67;77.78
19736;BME280;32064;49.310;8.646;2023-02-19T03:20:39;101041.53;;;12.65;78.41
19736;BME280;32064;49.310;8.646;2023-02-19T03:23:08;101032.03;;;12.62;79.01
19736;BME280;32064;49.310;8.646;2023-02-19T03:25:36;101031.53;;;12.57;78.13
19736;BME280;32064;49.310;8.646;2023-02-19T03:28:23;101032.25;;;12.59;79.00
19736;BME280;32064;49.310;8.646;2023-02-19T03:31:13;101044.28;;;12.50;80.28
19736;BME280;32064;49.310;8.646;2023-02-19T03:33:41;101059.19;;;12.51;78.33
19736;BME280;32064;49.310;8.646;2023-02-19T03:36:10;101067.59;;;12.44;79.41
19736;BME280;32064;49.310;8.646;2023-02-19T03:38:51;101056.44;;;12.53;79.08
19736;BME280;32064;49.310;8.646;2023-02-19T03:44:22;101045.13;;;12.51;80.53
19736;BME280;32064;49.310;8.646;2023-02-19T03:46:59;101042.69;;;12.48;79.62
19736;BME280;32064;49.310;8.646;2023-02-19T03:49:48;101065.94;;;12.43;81.63
19736;BME280;32064;49.310;8.646;2023-02-19T03:52:35;101063.59;;;12.38;80.82
19736;BME280;32064;49.310;8.646;2023-02-19T03:55:10;101065.47;;;12.36;82.31
19736;BME280;32064;49.310;8.646;2023-02-19T03:57:52;101060.41;;;12.33;81.92
19736;BME280;32064;49.310;8.646;2023-02-19T04:00:30;101060.91;;;12.25;81.44
19736;BME280;32064;49.310;8.646;2023-02-19T04:03:02;101050.69;;;12.33;82.61
19736;BME280;32064;49.310;8.646;2023-02-19T04:05:36;101058.31;;;12.38;81.63
19736;BME280;32064;49.310;8.646;2023-02-19T04:08:15;101049.66;;;12.36;82.37
19736;BME280;32064;49.310;8.646;2023-02-19T04:10:44;101059.44;;;12.34;83.19
19736;BME280;32064;49.310;8.646;2023-02-19T04:13:23;101059.34;;;12.35;81.80
19736;BME280;32064;49.310;8.646;2023-02-19T04:15:50;101062.00;;;12.35;81.86
19736;BME280;32064;49.310;8.646;2023-02-19T04:18:23;101064.94;;;12.31;83.14
19736;BME280;32064;49.310;8.646;2023-02-19T04:20:49;101068.44;;;12.31;83.35
19736;BME280;32064;49.310;8.646;2023-02-19T04:23:19;101057.44;;;12.25;83.61
19736;BME280;32064;49.310;8.646;2023-02-19T04:25:52;101070.06;;;12.20;83.52
19736;BME280;32064;49.310;8.646;2023-02-19T04:28:19;101056.78;;;12.21;82.43
19736;BME280;32064;49.310;8.646;2023-02-19T04:30:44;101051.53;;;12.21;82.90
19736;BME280;32064;49.310;8.646;2023-02-19T04:33:09;101040.97;;;12.21;82.31
19736;BME280;32064;49.310;8.646;2023-02-19T04:35:35;101053.91;;;12.11;84.36
19736;BME280;32064;49.310;8.646;2023-02-19T04:38:00;101053.28;;;12.08;83.73
19736;BME280;32064;49.310;8.646;2023-02-19T04:40:26;101054.56;;;12.15;82.24
19736;BME280;32064;49.310;8.646;2023-02-19T04:42:51;101061.94;;;12.10;84.39
19736;BME280;32064;49.310;8.646;2023-02-19T04:45:17;101069.66;;;12.13;82.86
19736;BME280;32064;49.310;8.646;2023-02-19T04:47:42;101058.47;;;12.09;83.31
19736;BME280;32064;49.310;8.646;2023-02-19T04:50:07;101066.59;;;12.19;83.39
19736;BME280;32064;49.310;8.646;2023-02-19T04:52:33;101067.00;;;12.13;83.19
19736;BME280;32064;49.310;8.646;2023-02-19T04:54:59;101059.19;;;12.11;83.50
19736;BME280;32064;49.310;8.646;2023-02-19T04:57:25;101063.03;;;12.20;83.67
19736;BME280;32064;49.310;8.646;2023-02-19T04:59:50;101062.56;;;12.13;83.13
19736;BME280;32064;49.310;8.646;2023-02-19T05:02:15;101065.63;;;12.07;83.90
19736;BME280;32064;49.310;8.646;2023-02-19T05:04:41;101061.38;;;12.05;84.07
19736;BME280;32064;49.310;8.646;2023-02-19T05:07:07;101046.53;;;12.04;85.39
19736;BME280;32064;49.310;8.646;2023-02-19T05:09:32;101045.78;;;12.02;84.79
19736;BME280;32064;49.310;8.646;2023-02-19T05:11:57;101047.66;;;12.00;84.81
19736;BME280;32064;49.310;8.646;2023-02-19T05:14:23;101056.03;;;12.06;84.07
19736;BME280;32064;49.310;8.646;2023-02-19T05:16:48;101077.97;;;12.07;84.20
19736;BME280;32064;49.310;8.646;2023-02-19T05:19:14;101078.47;;;11.99;85.14
19736;BME280;32064;49.310;8.646;2023-02-19T05:21:39;101070.88;;;12.07;83.55
19736;BME280;32064;49.310;8.646;2023-02-19T05:24:08;101074.78;;;12.02;85.93
19736;BME280;32064;49.310;8.646;2023-02-19T05:26:34;101063.09;;;12.06;84.91
19736;BME280;32064;49.310;8.646;2023-02-19T05:28:59;101070.06;;;12.07;85.18
19736;BME280;32064;49.310;8.646;2023-02-19T05:31:25;101065.47;;;11.96;84.65
19736;BME280;32064;49.310;8.646;2023-02-19T05:33:50;101074.97;;;11.99;84.21
19736;BME280;32064;49.310;8.646;2023-02-19T05:36:19;101079.09;;;12.03;85.53
19736;BME280;32064;49.310;8.646;2023-02-19T05:38:45;101087.31;;;11.98;85.62
19736;BME280;32064;49.310;8.646;2023-02-19T05:41:16;101092.13;;;11.91;86.51
19736;BME280;32064;49.310;8.646;2023-02-19T05:43:43;101096.28;;;11.96;85.37
19736;BME280;32064;49.310;8.646;2023-02-19T05:46:11;101081.56;;;11.91;86.71
19736;BME280;32064;49.310;8.646;2023-02-19T05:48:36;101076.97;;;11.95;85.66
19736;BME280;32064;49.310;8.646;2023-02-19T05:51:04;101070.53;;;11.99;85.02
19736;BME280;32064;49.310;8.646;2023-02-19T05:53:30;101078.25;;;12.02;86.18
19736;BME280;32064;49.310;8.646;2023-02-19T05:55:55;101074.78;;;12.02;84.67
19736;BME280;32064;49.310;8.646;2023-02-19T05:58:21;101074.69;;;12.03;86.48
19736;BME280;32064;49.310;8.646;2023-02-19T06:00:46;101079.22;;;12.01;84.77
19736;BME280;32064;49.310;8.646;2023-02-19T06:03:12;101083.84;;;11.98;86.33
19736;BME280;32064;49.310;8.646;2023-02-19T06:05:37;101081.84;;;12.01;86.90
19736;BME280;32064;49.310;8.646;2023-02-19T06:08:03;101086.91;;;12.04;86.13
19736;BME280;32064;49.310;8.646;2023-02-19T06:10:28;101095.03;;;12.01;85.97
19736;BME280;32064;49.310;8.646;2023-02-19T06:12:54;101095.13;;;12.00;85.90
19736;BME280;32064;49.310;8.646;2023-02-19T06:15:19;101095.22;;;11.98;85.18
19736;BME280;32064;49.310;8.646;2023-02-19T06:17:45;101103.97;;;11.99;85.71
19736;BME280;32064;49.310;8.646;2023-02-19T06:20:11;101113.53;;;11.87;86.14
19736;BME280;32064;49.310;8.646;2023-02-19T06:22:36;101113.06;;;11.95;87.22
19736;BME280;32064;49.310;8.646;2023-02-19T06:25:02;101110.78;;;11.88;86.49
19736;BME280;32064;49.310;8.646;2023-02-19T06:27:28;101107.66;;;11.82;86.76
19736;BME280;32064;49.310;8.646;2023-02-19T06:29:53;101116.63;;;11.94;87.61
19736;BME280;32064;49.310;8.646;2023-02-19T06:32:18;101114.72;;;11.96;86.81
19736;BME280;32064;49.310;8.646;2023-02-19T06:34:44;101123.28;;;11.99;85.35
19736;BME280;32064;49.310;8.646;2023-02-19T06:37:09;101126.41;;;11.91;87.52
19736;BME280;32064;49.310;8.646;2023-02-19T06:39:35;101122.34;;;12.00;87.13
19736;BME280;32064;49.310;8.646;2023-02-19T06:42:00;101124.03;;;12.01;85.79
19736;BME280;32064;49.310;8.646;2023-02-19T06:44:25;101124.25;;;11.98;85.34
19736;BME280;32064;49.310;8.646;2023-02-19T06:46:53;101120.66;;;11.99;85.03
19736;BME280;32064;49.310;8.646;2023-02-19T06:49:19;101121.50;;;12.00;86.72
19736;BME280;32064;49.310;8.646;2023-02-19T06:51:45;101126.56;;;12.03;84.78
19736;BME280;32064;49.310;8.646;2023-02-19T06:54:10;101123.09;;;12.02;84.67
19736;BME280;32064;49.310;8.646;2023-02-19T06:56:37;101131.94;;;12.01;85.97
19736;BME280;32064;49.310;8.646;2023-02-19T06:59:11;101135.63;;;11.99;84.37
19736;BME280;32064;49.310;8.646;2023-02-19T07:01:38;101138.06;;;12.02;85.57
19736;BME280;32064;49.310;8.646;2023-02-19T07:04:05;101141.53;;;12.02;84.32
19736;BME280;32064;49.310;8.646;2023-02-19T07:06:30;101149.16;;;12.07;85.01
19736;BME280;32064;49.310;8.646;2023-02-19T07:08:57;101146.53;;;12.07;84.59
19736;BME280;32064;49.310;8.646;2023-02-19T07:11:23;101141.63;;;12.15;84.84
19736;BME280;32064;49.310;8.646;2023-02-19T07:13:57;101152.06;;;12.17;84.36
19736;BME280;32064;49.310;8.646;2023-02-19T07:16:23;101153.75;;;12.18;85.27
19736;BME280;32064;49.310;8.646;2023-02-19T07:18:48;101149.31;;;12.18;84.82
19736;BME280;32064;49.310;8.646;2023-02-19T07:21:15;101154.69;;;12.17;83.96
19736;BME280;32064;49.310;8.646;2023-02-19T07:23:41;101166.94;;;12.18;84.96
19736;BME280;32064;49.310;8.646;2023-02-19T07:26:17;101171.28;;;12.19;83.89
19736;BME280;32064;49.310;8.646;2023-02-19T07:28:43;101175.38;;;12.23;84.86
19736;BME280;32064;49.310;8.646;2023-02-19T07:31:09;101183.78;;;12.29;85.00
19736;BME280;32064;49.310;8.646;2023-02-19T07:33:35;101180.31;;;12.29;84.27
19736;BME280;32064;49.310;8.646;2023-02-19T07:36:01;101177.34;;;12.33;84.66
19736;BME280;32064;49.310;8.646;2023-02-19T07:38:26;101192.53;;;12.30;85.52
19736;BME280;32064;49.310;8.646;2023-02-19T07:40:54;101190.13;;;12.40;84.76
19736;BME280;32064;49.310;8.646;2023-02-19T07:43:20;101181.63;;;12.49;84.09
19736;BME280;32064;49.310;8.646;2023-02-19T07:45:46;101197.28;;;12.52;83.08
19736;BME280;32064;49.310;8.646;2023-02-19T07:48:12;101195.63;;;12.64;83.79
19736;BME280;32064;49.310;8.646;2023-02-19T07:50:37;101205.47;;;12.74;83.47
19736;BME280;32064;49.310;8.646;2023-02-19T07:53:03;101211.72;;;12.86;83.02
19736;BME280;32064;49.310;8.646;2023-02-19T07:55:33;101205.75;;;12.97;82.52
19736;BME280;32064;49.310;8.646;2023-02-19T07:57:59;101209.31;;;12.96;82.12
19736;BME280;32064;49.310;8.646;2023-02-19T08:00:25;101218.63;;;13.01;82.00
19736;BME280;32064;49.310;8.646;2023-02-19T08:02:51;101211.34;;;13.05;82.05
19736;BME280;32064;49.310;8.646;2023-02-19T08:05:31;101220.41;;;13.01;81.44
19736;BME280;32064;49.310;8.646;2023-02-19T08:07:58;101211.66;;;13.00;81.02
19736;BME280;32064;49.310;8.646;2023-02-19T08:10:23;101222.84;;;12.91;81.80
19736;BME280;32064;49.310;8.646;2023-02-19T08:13:14;101219.16;;;12.94;82.24
19736;BME280;32064;49.310;8.646;2023-02-19T08:16:07;101216.94;;;13.00;80.38
19736;BME280;32064;49.310;8.646;2023-02-19T08:18:33;101221.72;;;13.21;80.10
19736;BME280;32064;49.310;8.646;2023-02-19T08:20:59;101209.59;;;13.31;80.68
19736;BME280;32064;49.310;8.646;2023-02-19T08:23:26;101210.34;;;13.59;79.26
19736;BME280;32064;49.310;8.646;2023-02-19T08:25:53;101204.06;;;13.73;78.72
19736;BME280;32064;49.310;8.646;2023-02-19T08:28:20;101206.88;;;14.08;77.73
19736;BME280;32064;49.310;8.646;2023-02-19T08:30:46;101207.16;;;14.16;77.49
19736;BME280;32064;49.310;8.646;2023-02-19T08:33:17;101214.84;;;15.15;74.56
19736;BME280;32064;49.310;8.646;2023-02-19T08:35:43;101216.25;;;16.87;68.85
19736;BME280;32064;49.310;8.646;2023-02-19T08:38:10;101223.38;;;17.70;66.88
19736;BME280;32064;49.310;8.646;2023-02-19T08:40:39;101228.94;;;16.94;68.64
19736;BME280;32064;49.310;8.646;2023-02-19T08:43:09;101232.16;;;16.33;69.51
19736;BME280;32064;49.310;8.646;2023-02-19T08:45:39;101238.94;;;15.92;69.58
19736;BME280;32064;49.310;8.646;2023-02-19T08:48:06;101230.09;;;15.58;70.71
19736;BME280;32064;49.310;8.646;2023-02-19T08:50:31;101227.91;;;15.41;71.37
19736;BME280;32064;49.310;8.646;2023-02-19T08:53:01;101228.72;;;15.19;71.18
19736;BME280;32064;49.310;8.646;2023-02-19T08:55:27;101233.66;;;15.12;72.66
19736;BME280;32064;49.310;8.646;2023-02-19T08:57:52;101243.69;;;14.96;72.36
19736;BME280;32064;49.310;8.646;2023-02-19T09:00:18;101254.34;;;14.83;73.14
19736;BME280;32064;49.310;8.646;2023-02-19T09:02:43;101257.97;;;14.82;72.38
19736;BME280;32064;49.310;8.646;2023-02-19T09:05:14;101263.00;;;14.74;72.25
19736;BME280;32064;49.310;8.646;2023-02-19T09:07:40;101257.38;;;14.78;72.74
19736;BME280;32064;49.310;8.646;2023-02-19T09:10:06;101264.13;;;14.82;72.44
19736;BME280;32064;49.310;8.646;2023-02-19T09:12:32;101277.59;;;14.79;72.13
19736;BME280;32064;49.310;8.646;2023-02-19T09:14:58;101275.06;;;14.78;71.91
19736;BME280;32064;49.310;8.646;2023-02-19T09:17:23;101282.66;;;14.82;71.68
19736;BME280;32064;49.310;8.646;2023-02-19T09:19:49;101282.66;;;14.82;71.44
19736;BME280;32064;49.310;8.646;2023-02-19T09:22:14;101294.59;;;14.88;71.40
19736;BME280;32064;49.310;8.646;2023-02-19T09:24:41;101300.69;;;15.01;71.24
19736;BME280;32064;49.310;8.646;2023-02-19T09:27:13;101297.88;;;15.16;70.75
19736;BME280;32064;49.310;8.646;2023-02-19T09:29:39;101303.09;;;15.29;70.31
19736;BME280;32064;49.310;8.646;2023-02-19T09:32:04;101304.66;;;15.31;71.18
19736;BME280;32064;49.310;8.646;2023-02-19T09:34:30;101303.19;;;15.27;70.93
19736;BME280;32064;49.310;8.646;2023-02-19T09:36:55;101302.13;;;15.30;69.80
19736;BME280;32064;49.310;8.646;2023-02-19T09:39:20;101305.34;;;15.57;69.84
19736;BME280;32064;49.310;8.646;2023-02-19T09:42:13;101307.91;;;15.70;67.16
19736;BME280;32064;49.310;8.646;2023-02-19T09:44:41;101316.41;;;16.31;67.57
19736;BME280;32064;49.310;8.646;2023-02-19T09:47:15;101305.25;;;16.60;65.69
19736;BME280;32064;49.310;8.646;2023-02-19T09:49:43;101323.13;;;16.47;66.44
19736;BME280;32064;49.310;8.646;2023-02-19T09:54:43;101321.94;;;15.94;67.12
19736;BME280;32064;49.310;8.646;2023-02-19T09:57:15;101322.91;;;15.71;66.26
19736;BME280;32064;49.310;8.646;2023-02-19T10:00:03;101329.19;;;15.46;67.43
19736;BME280;32064;49.310;8.646;2023-02-19T10:02:29;101331.00;;;15.57;67.35
19736;BME280;32064;49.310;8.646;2023-02-19T10:04:56;101324.81;;;15.69;66.56
19736;BME280;32064;49.310;8.646;2023-02-19T10:07:24;101337.63;;;15.86;66.09
19736;BME280;32064;49.310;8.646;2023-02-19T10:09:57;101332.66;;;15.82;65.44
19736;BME280;32064;49.310;8.646;2023-02-19T10:12:30;101323.44;;;15.63;66.14
19736;BME280;32064;49.310;8.646;2023-02-19T10:15:03;101318.44;;;15.71;66.53
19736;BME280;32064;49.310;8.646;2023-02-19T10:17:30;101332.66;;;15.93;65.62
19736;BME280;32064;49.310;8.646;2023-02-19T10:19:59;101321.47;;;16.12;64.96
19736;BME280;32064;49.310;8.646;2023-02-19T10:22:25;101322.66;;;16.30;65.06
19736;BME280;32064;49.310;8.646;2023-02-19T10:24:54;101325.44;;;16.29;66.01
19736;BME280;32064;49.310;8.646;2023-02-19T10:27:20;101314.59;;;16.32;66.00
19736;BME280;32064;49.310;8.646;2023-02-19T10:29:47;101324.16;;;16.89;63.41
19736;BME280;32064;49.310;8.646;2023-02-19T10:34:42;101331.78;;;16.82;64.06
19736;BME280;32064;49.310;8.646;2023-02-19T10:37:12;101327.13;;;17.81;61.20
19736;BME280;32064;49.310;8.646;2023-02-19T10:39:45;101329.63;;;17.41;61.51
19736;BME280;32064;49.310;8.646;2023-02-19T10:42:17;101331.47;;;17.08;62.42
19736;BME280;32064;49.310;8.646;2023-02-19T10:44:45;101327.31;;;16.72;62.28
19736;BME280;32064;49.310;8.646;2023-02-19T10:47:17;101341.84;;;16.56;62.61
19736;BME280;32064;49.310;8.646;2023-02-19T10:49:44;101332.41;;;16.52;64.11
19736;BME280;32064;49.310;8.646;2023-02-19T10:54:54;101343.06;;;16.19;63.60
19736;BME280;32064;49.310;8.646;2023-02-19T11:02:17;101342.94;;;15.98;64.80
19736;BME280;32064;49.310;8.646;2023-02-19T11:07:34;101352.09;;;15.93;64.64
19736;BME280;32064;49.310;8.646;2023-02-19T11:10:01;101349.81;;;15.89;63.71
19736;BME280;32064;49.310;8.646;2023-02-19T11:12:30;101354.63;;;15.95;63.85
19736;BME280;32064;49.310;8.646;2023-02-19T11:15:01;101369.00;;;15.92;63.66
19736;BME280;32064;49.310;8.646;2023-02-19T11:17:35;101375.53;;;16.00;62.63
19736;BME280;32064;49.310;8.646;2023-02-19T11:20:06;101378.44;;;15.97;62.16
19736;BME280;32064;49.310;8.646;2023-02-19T11:22:42;101386.00;;;16.01;62.44
19736;BME280;32064;49.310;8.646;2023-02-19T11:27:53;101393.41;;;16.09;62.56
19736;BME280;32064;49.310;8.646;2023-02-19T11:33:13;101399.31;;;16.46;61.26
19736;BME280;32064;49.310;8.646;2023-02-19T11:35:48;101409.22;;;16.55;61.88
19736;BME280;32064;49.310;8.646;2023-02-19T11:38:16;101399.56;;;16.43;60.66
19736;BME280;32064;49.310;8.646;2023-02-19T11:41:03;101403.06;;;16.32;60.23
19736;BME280;32064;49.310;8.646;2023-02-19T11:43:51;101406.56;;;16.44;61.70
19736;BME280;32064;49.310;8.646;2023-02-19T11:46:41;101384.97;;;16.49;61.84
19736;BME280;32064;49.310;8.646;2023-02-19T11:57:29;101371.84;;;17.66;59.41
19736;BME280;32064;49.310;8.646;2023-02-19T12:05:17;101375.84;;;19.34;55.86
19736;BME280;32064;49.310;8.646;2023-02-19T12:08:08;101387.78;;;18.60;56.52
19736;BME280;32064;49.310;8.646;2023-02-19T12:13:26;101382.66;;;18.16;57.71
19736;BME280;32064;49.310;8.646;2023-02-19T12:22:00;101370.19;;;18.98;55.70
19736;BME280;32064;49.310;8.646;2023-02-19T12:40:45;101395.25;;;18.35;56.56
19736;BME280;32064;49.310;8.646;2023-02-19T12:45:57;101362.19;;;18.17;56.10
19736;BME280;32064;49.310;8.646;2023-02-19T12:51:06;101361.53;;;18.25;56.16
19736;BME280;32064;49.310;8.646;2023-02-19T12:56:19;101360.94;;;19.21;53.67
19736;BME280;32064;49.310;8.646;2023-02-19T12:58:52;101355.47;;;19.13;54.04
19736;BME280;32064;49.310;8.646;2023-02-19T13:01:24;101356.44;;;18.93;54.61
19736;BME280;32064;49.310;8.646;2023-02-19T13:04:14;101356.63;;;18.60;52.71
19736;BME280;32064;49.310;8.646;2023-02-19T13:06:49;101348.88;;;18.17;54.38
19736;BME280;32064;49.310;8.646;2023-02-19T13:09:30;101357.25;;;17.82;55.89
19736;BME280;32064;49.310;8.646;2023-02-19T13:12:06;101355.47;;;17.71;55.94
19736;BME280;32064;49.310;8.646;2023-02-19T13:14:47;101364.81;;;17.44;56.80
19736;BME280;32064;49.310;8.646;2023-02-19T13:17:23;101373.22;;;17.28;56.36
19736;BME280;32064;49.310;8.646;2023-02-19T13:19:55;101366.88;;;17.09;55.91
19736;BME280;32064;49.310;8.646;2023-02-19T13:22:31;101358.13;;;16.86;56.76
19736;BME280;32064;49.310;8.646;2023-02-19T13:25:18;101349.19;;;16.64;58.43
19736;BME280;32064;49.310;8.646;2023-02-19T13:33:47;101351.97;;;16.63;57.70
19736;BME280;32064;49.310;8.646;2023-02-19T13:36:28;101349.31;;;16.63;57.92
19736;BME280;32064;49.310;8.646;2023-02-19T13:38:55;101350.75;;;16.67;57.77
19736;BME280;32064;49.310;8.646;2023-02-19T13:41:30;101348.94;;;16.78;57.51
19736;BME280;32064;49.310;8.646;2023-02-19T13:44:00;101335.03;;;16.86;57.78
19736;BME280;32064;49.310;8.646;2023-02-19T13:46:33;101336.03;;;16.85;58.26
19736;BME280;32064;49.310;8.646;2023-02-19T13:49:40;101342.66;;;16.68;58.16
19736;BME280;32064;49.310;8.646;2023-02-19T14:06:05;101341.69;;;16.69;57.27
19736;BME280;32064;49.310;8.646;2023-02-19T14:08:51;101330.25;;;16.57;57.48
19736;BME280;32064;49.310;8.646;2023-02-19T14:14:34;101340.78;;;16.36;57.47
19736;BME280;32064;49.310;8.646;2023-02-19T14:19:49;101340.41;;;16.19;58.98
19736;BME280;32064;49.310;8.646;2023-02-19T14:30:59;101348.97;;;16.00;59.55
19736;BME280;32064;49.310;8.646;2023-02-19T14:33:32;101368.66;;;15.97;60.23
19736;BME280;32064;49.310;8.646;2023-02-19T14:36:32;101372.47;;;15.82;59.86
19736;BME280;32064;49.310;8.646;2023-02-19T14:39:01;101370.88;;;15.79;60.27
19736;BME280;32064;49.310;8.646;2023-02-19T14:41:32;101382.22;;;15.70;60.35
19736;BME280;32064;49.310;8.646;2023-02-19T14:43:59;101385.19;;;15.65;60.32
19736;BME280;32064;49.310;8.646;2023-02-19T14:46:45;101387.06;;;15.52;60.79
19736;BME280;32064;49.310;8.646;2023-02-19T14:49:28;101380.41;;;15.46;60.95
19736;BME280;32064;49.310;8.646;2023-02-19T14:52:02;101377.31;;;15.53;61.54
19736;BME280;32064;49.310;8.646;2023-02-19T14:54:47;101394.19;;;15.52;60.68
19736;BME280;32064;49.310;8.646;2023-02-19T14:57:22;101394.56;;;15.58;61.78
19736;BME280;32064;49.310;8.646;2023-02-19T14:59:59;101393.47;;;15.61;61.65
19736;BME280;32064;49.310;8.646;2023-02-19T15:02:27;101400.19;;;15.54;61.51
19736;BME280;32064;49.310;8.646;2023-02-19T15:04:53;101403.25;;;15.60;61.28
19736;BME280;32064;49.310;8.646;2023-02-19T15:07:25;101405.28;;;15.57;61.23
19736;BME280;32064;49.310;8.646;2023-02-19T15:09:56;101415.28;;;15.53;61.36
19736;BME280;32064;49.310;8.646;2023-02-19T15:12:32;101418.28;;;15.48;60.50
19736;BME280;32064;49.310;8.646;2023-02-19T15:15:00;101421.03;;;15.47;61.28